Time;durP1;ratioP1;P1;durP2;ratioP2;P2;SDS_P1;SDS_P2;PMS_P1;PMS_P2;Temp;Humidity;BMP_temperature;BMP_pressure;BME280_temperature;BME280_humidity;BME280_pressure;Samples;Min_cycle;Max_cycle;Signal;HPM_P1;HPM_P2
2022/08/04 04:00:57;;;;;;;8.80;3.37;;;21.90;99.90;;;;;;5936098;23;21368;-77
2022/08/04 04:03:48;;;;;;;10.70;3.70;;;21.80;99.90;;;;;;5047704;28;20457;-77
2022/08/04 04:06:44;;;;;;;4.30;3.13;;;21.80;99.90;;;;;;5047292;28;20467;-77
2022/08/04 04:09:46;;;;;;;4.97;3.00;;;21.80;99.90;;;;;;5048076;28;20434;-77
2022/08/04 04:12:49;;;;;;;3.40;3.10;;;21.80;99.90;;;;;;5031440;28;20482;-77
2022/08/04 04:15:34;;;;;;;3.50;3.20;;;21.70;99.90;;;;;;5027525;28;20468;-77
2022/08/04 04:18:30;;;;;;;3.83;3.20;;;21.70;99.90;;;;;;5028148;28;20452;-71
2022/08/04 04:21:16;;;;;;;3.80;3.30;;;21.70;99.90;;;;;;5022498;28;20482;-71
2022/08/04 04:24:02;;;;;;;5.87;3.40;;;21.70;99.90;;;;;;5026775;28;20780;-71
2022/08/04 04:26:46;;;;;;;4.00;3.40;;;21.70;99.90;;;;;;5026397;28;21346;-70
2022/08/04 04:29:29;;;;;;;5.60;3.63;;;21.60;99.90;;;;;;5026671;28;20450;-70
2022/08/04 04:32:19;;;;;;;6.30;3.30;;;21.60;99.90;;;;;;5026543;28;20477;-70
2022/08/04 04:35:06;;;;;;;5.40;3.43;;;21.60;99.90;;;;;;5026022;28;20442;-70
2022/08/04 04:37:54;;;;;;;6.10;3.80;;;21.50;99.90;;;;;;5026588;28;20446;-70
2022/08/04 04:40:34;;;;;;;4.57;3.50;;;21.50;99.90;;;;;;5026242;28;20498;-70
2022/08/04 04:43:19;;;;;;;4.60;3.63;;;21.50;99.90;;;;;;5026953;28;20448;-70
2022/08/04 04:45:54;;;;;;;5.30;3.40;;;21.50;99.90;;;;;;5025414;28;20470;-70
2022/08/04 04:48:33;;;;;;;3.83;3.40;;;21.50;99.90;;;;;;5026218;28;20457;-70
2022/08/04 04:51:10;;;;;;;4.40;3.90;;;21.40;99.90;;;;;;5027906;28;20800;-76
2022/08/04 04:53:46;;;;;;;7.33;4.00;;;21.40;99.90;;;;;;5029564;28;20909;-76
2022/08/04 04:56:23;;;;;;;5.03;3.70;;;21.40;99.90;;;;;;5028913;28;20474;-78
2022/08/04 04:58:53;;;;;;;5.00;3.23;;;21.40;99.90;;;;;;5029975;28;20480;-77
2022/08/04 05:02:20;;;;;;;9.10;3.60;;;21.40;99.90;;;;;;5028789;28;20489;-78
2022/08/04 05:05:34;;;;;;;6.33;3.40;;;21.30;99.90;;;;;;4872771;29;20944;-77
2022/08/04 05:08:33;;;;;;;4.10;3.70;;;21.30;99.90;;;;;;5024200;28;20470;-78
2022/08/04 05:11:18;;;;;;;6.83;3.87;;;21.30;99.90;;;;;;5028926;28;20494;-78
2022/08/04 05:13:49;;;;;;;4.50;3.90;;;21.30;99.90;;;;;;5030413;28;20473;-76
2022/08/04 05:16:20;;;;;;;3.93;3.57;;;21.30;99.90;;;;;;5027944;28;20438;-77
2022/08/04 05:18:54;;;;;;;4.87;3.80;;;21.30;99.90;;;;;;5025509;28;20493;-72
2022/08/04 05:21:33;;;;;;;8.03;3.93;;;21.40;99.90;;;;;;5026073;28;20491;-72
2022/08/04 05:24:06;;;;;;;8.33;3.80;;;21.40;99.90;;;;;;5025332;28;20458;-73
2022/08/04 05:26:38;;;;;;;4.20;3.50;;;21.30;99.90;;;;;;5025440;28;21004;-73
2022/08/04 05:29:10;;;;;;;3.93;3.53;;;21.30;99.90;;;;;;5024922;28;20446;-72
2022/08/04 05:31:41;;;;;;;7.07;4.10;;;21.30;99.90;;;;;;5024097;28;20849;-73
2022/08/04 05:34:12;;;;;;;8.00;3.87;;;21.40;99.90;;;;;;5024335;28;20953;-73
2022/08/04 05:36:43;;;;;;;5.60;4.10;;;21.40;99.90;;;;;;5025518;28;20980;-73
2022/08/04 05:39:17;;;;;;;7.60;4.77;;;21.40;99.90;;;;;;5025404;28;20494;-74
2022/08/04 05:41:44;;;;;;;4.30;3.50;;;21.40;99.90;;;;;;5025410;28;21010;-73
2022/08/04 05:44:12;;;;;;;4.70;4.20;;;21.40;99.90;;;;;;5024801;28;20454;-73
2022/08/04 05:46:39;;;;;;;3.77;3.33;;;21.50;99.90;;;;;;5025154;28;20965;-73
2022/08/04 05:49:08;;;;;;;3.93;3.50;;;21.50;99.90;;;;;;5025402;28;20456;-73
2022/08/04 05:51:36;;;;;;;5.30;3.77;;;21.50;99.90;;;;;;5025191;28;20482;-73
2022/08/04 05:54:05;;;;;;;6.23;4.33;;;21.60;99.90;;;;;;5025200;28;20465;-72
2022/08/04 05:56:36;;;;;;;5.80;4.23;;;21.60;99.90;;;;;;5025114;28;20945;-73
2022/08/04 05:59:05;;;;;;;4.67;4.17;;;21.60;99.90;;;;;;5025506;28;20493;-73
2022/08/04 06:01:33;;;;;;;4.00;3.40;;;21.60;99.90;;;;;;5025145;28;20492;-73
2022/08/04 06:04:02;;;;;;;4.97;3.87;;;21.60;99.90;;;;;;5024995;28;20450;-73
2022/08/04 06:06:30;;;;;;;4.97;3.30;;;21.60;99.90;;;;;;5024877;28;20461;-73
2022/08/04 06:08:57;;;;;;;4.50;3.40;;;21.60;99.90;;;;;;5027824;28;20468;-73
2022/08/04 06:11:27;;;;;;;9.40;4.07;;;21.70;99.90;;;;;;5028878;28;21265;-73
2022/08/04 06:13:59;;;;;;;3.93;3.27;;;21.70;99.90;;;;;;5029345;28;20570;-72
2022/08/04 06:16:30;;;;;;;7.90;4.13;;;21.70;99.90;;;;;;5028798;28;20454;-73
2022/08/04 06:19:00;;;;;;;4.50;3.90;;;21.80;99.90;;;;;;5028885;28;21101;-72
2022/08/04 06:21:28;;;;;;;5.03;3.90;;;21.80;99.90;;;;;;5029227;28;20492;-74
2022/08/04 06:23:57;;;;;;;4.80;4.03;;;21.90;99.90;;;;;;5029000;28;20480;-73
2022/08/04 06:26:26;;;;;;;5.33;4.10;;;22.00;99.90;;;;;;5029137;28;20458;-79
2022/08/04 06:28:54;;;;;;;4.60;3.50;;;22.00;99.90;;;;;;5034091;28;20461;-79
2022/08/04 06:31:41;;;;;;;8.43;4.77;;;22.10;99.90;;;;;;5033482;28;20473;-80
2022/08/04 06:34:10;;;;;;;5.23;3.83;;;22.10;99.90;;;;;;5033661;28;20575;-79
2022/08/04 06:36:39;;;;;;;7.60;4.10;;;22.10;99.90;;;;;;5034666;28;20485;-80
2022/08/04 06:39:08;;;;;;;6.70;3.60;;;22.20;99.90;;;;;;5038919;28;20496;-79
2022/08/04 06:41:35;;;;;;;3.73;2.97;;;22.30;99.90;;;;;;5037093;28;20489;-79
2022/08/04 06:44:04;;;;;;;9.20;2.97;;;22.30;99.90;;;;;;5032901;28;20847;-78
2022/08/04 06:46:35;;;;;;;5.90;3.10;;;22.40;99.90;;;;;;5032671;28;20458;-78
2022/08/04 06:49:03;;;;;;;4.40;2.53;;;22.40;99.90;;;;;;5033083;28;20461;-79
2022/08/04 06:51:31;;;;;;;3.47;3.17;;;22.50;99.90;;;;;;5033154;28;20473;-80
2022/08/04 06:53:58;;;;;;;6.13;2.80;;;22.60;99.90;;;;;;5032121;28;20848;-80
2022/08/04 06:56:28;;;;;;;6.70;2.80;;;22.70;99.90;;;;;;5032380;28;20468;-79
2022/08/04 06:58:56;;;;;;;3.67;2.63;;;22.80;99.90;;;;;;5033611;28;20450;-79
2022/08/04 07:01:24;;;;;;;4.63;2.77;;;22.90;99.90;;;;;;5033863;28;20489;-79
2022/08/04 07:03:53;;;;;;;5.87;3.20;;;23.00;99.90;;;;;;5033859;28;20464;-79
2022/08/04 07:06:22;;;;;;;6.00;3.17;;;23.10;99.90;;;;;;5032842;28;20460;-79
2022/08/04 07:08:50;;;;;;;3.67;2.37;;;23.20;99.90;;;;;;5033190;28;20465;-78
2022/08/04 07:11:18;;;;;;;2.93;2.50;;;23.30;99.90;;;;;;5032844;28;20883;-79
2022/08/04 07:13:46;;;;;;;3.23;2.50;;;23.40;99.90;;;;;;5033330;28;20446;-77
2022/08/04 07:16:14;;;;;;;3.30;2.40;;;23.50;99.90;;;;;;5032329;28;20462;-76
2022/08/04 07:18:41;;;;;;;2.93;2.57;;;23.60;99.90;;;;;;5032330;28;20461;-77
2022/08/04 07:21:10;;;;;;;3.53;2.30;;;23.70;99.90;;;;;;5031194;28;21017;-79
2022/08/04 07:23:37;;;;;;;4.10;3.03;;;23.80;99.90;;;;;;5032144;28;20774;-78
2022/08/04 07:26:04;;;;;;;4.37;2.80;;;23.80;99.90;;;;;;5030899;28;20450;-78
2022/08/04 07:28:31;;;;;;;3.93;2.70;;;23.90;99.90;;;;;;5031598;28;20466;-79
2022/08/04 07:30:58;;;;;;;4.13;3.07;;;24.00;99.90;;;;;;5032065;28;20485;-79
2022/08/04 07:33:25;;;;;;;3.10;2.70;;;24.20;99.90;;;;;;5031718;28;20465;-79
2022/08/04 07:35:55;;;;;;;5.30;2.43;;;24.20;99.90;;;;;;5033789;28;20469;-79
2022/08/04 07:38:24;;;;;;;3.10;2.60;;;24.30;99.90;;;;;;5031037;28;20461;-80
2022/08/04 07:40:51;;;;;;;3.63;2.63;;;24.40;99.90;;;;;;5030463;28;20505;-79
2022/08/04 07:43:18;;;;;;;2.90;2.20;;;24.50;99.90;;;;;;5030958;28;20471;-77
2022/08/04 07:45:45;;;;;;;4.40;2.30;;;24.60;99.90;;;;;;5030418;28;20896;-79
2022/08/04 07:48:14;;;;;;;7.10;2.63;;;24.70;99.90;;;;;;5030721;28;20553;-78
2022/08/04 07:50:42;;;;;;;7.20;3.00;;;24.70;99.90;;;;;;5030775;28;20936;-78
2022/08/04 07:53:12;;;;;;;10.97;2.87;;;24.80;99.90;;;;;;5030606;28;21011;-78
2022/08/04 07:55:40;;;;;;;5.00;2.10;;;25.00;99.90;;;;;;5030214;28;20461;-77
2022/08/04 07:58:07;;;;;;;5.93;2.37;;;25.10;99.90;;;;;;5030535;28;20468;-77
2022/08/04 08:00:34;;;;;;;5.60;2.30;;;25.20;99.90;;;;;;5030648;28;20521;-79
2022/08/04 08:03:02;;;;;;;2.70;2.27;;;25.40;99.90;;;;;;5030573;28;20462;-78
2022/08/04 08:05:30;;;;;;;4.30;2.50;;;25.50;99.90;;;;;;5029889;28;20541;-79
2022/08/04 08:07:57;;;;;;;2.83;2.30;;;25.60;99.90;;;;;;5030355;28;20469;-77
2022/08/04 08:10:25;;;;;;;5.00;1.93;;;25.70;99.90;;;;;;5030227;28;20450;-79
2022/08/04 08:12:53;;;;;;;3.90;3.03;;;25.90;99.90;;;;;;5030182;28;20996;-79
2022/08/04 08:15:21;;;;;;;6.27;2.20;;;26.00;99.90;;;;;;5025356;28;20458;-79
2022/08/04 08:17:48;;;;;;;4.43;2.40;;;26.10;99.90;;;;;;5012177;28;20947;-79
2022/08/04 08:20:15;;;;;;;3.93;3.10;;;26.40;99.90;;;;;;5030334;28;20943;-76
2022/08/04 08:22:41;;;;;;;3.00;2.10;;;26.50;99.90;;;;;;5030141;28;20969;-79
2022/08/04 08:25:09;;;;;;;5.77;1.70;;;26.60;99.90;;;;;;5030242;28;20462;-79
2022/08/04 08:27:37;;;;;;;4.17;2.30;;;26.60;99.90;;;;;;5030386;28;20540;-78
2022/08/04 08:30:07;;;;;;;2.43;1.60;;;26.60;99.90;;;;;;5031019;28;20472;-78
2022/08/04 08:32:34;;;;;;;2.23;1.70;;;26.70;99.90;;;;;;5030247;28;20493;-78
2022/08/04 08:35:01;;;;;;;4.07;2.17;;;26.80;99.90;;;;;;5029335;28;20461;-73
2022/08/04 08:37:33;;;;;;;19.63;7.90;;;26.90;99.90;;;;;;5027088;28;20458;-68
2022/08/04 08:40:15;;;;;;;25.20;11.40;;;27.00;99.90;;;;;;5027604;28;20604;-78
2022/08/04 08:43:00;;;;;;;3.70;2.07;;;27.10;99.90;;;;;;5030895;28;20944;-78
2022/08/04 08:45:57;;;;;;;2.33;1.63;;;27.20;99.90;;;;;;5030273;28;20608;-78
2022/08/04 08:48:40;;;;;;;2.73;1.93;;;27.30;99.90;;;;;;5030737;28;20458;-78
2022/08/04 08:51:46;;;;;;;2.23;1.90;;;27.40;99.90;;;;;;5030601;28;20474;-78
2022/08/04 08:54:32;;;;;;;4.47;1.83;;;27.60;99.90;;;;;;5026204;28;20549;-78
2022/08/04 08:57:16;;;;;;;2.30;2.07;;;27.70;99.90;;;;;;5035006;28;20528;-78
2022/08/04 09:00:00;;;;;;;2.60;2.13;;;27.80;99.90;;;;;;5030426;28;20541;-78
2022/08/04 09:02:59;;;;;;;2.20;2.00;;;28.00;99.90;;;;;;5030714;28;20528;-78
2022/08/04 09:05:40;;;;;;;2.93;2.20;;;28.10;99.90;;;;;;4995682;28;20476;-78
2022/08/04 09:08:20;;;;;;;2.40;2.10;;;28.20;99.90;;;;;;5030871;28;20556;-78
2022/08/04 09:10:51;;;;;;;2.73;2.30;;;28.40;99.90;;;;;;5030851;28;20485;-78
2022/08/04 09:13:23;;;;;;;2.80;1.90;;;28.50;99.90;;;;;;5027982;28;20454;-78
2022/08/04 09:15:59;;;;;;;3.40;2.03;;;28.70;99.90;;;;;;5027488;28;20562;-77
2022/08/04 09:18:33;;;;;;;2.37;2.03;;;28.80;99.90;;;;;;5028140;28;20548;-77
2022/08/04 09:21:06;;;;;;;2.40;1.80;;;28.90;99.90;;;;;;5028479;28;20524;-78
2022/08/04 09:23:42;;;;;;;4.43;2.00;;;29.00;99.90;;;;;;5028246;28;20817;-78
2022/08/04 09:26:18;;;;;;;2.70;1.97;;;29.20;99.90;;;;;;5027750;28;20918;-77
2022/08/04 09:28:53;;;;;;;3.40;2.00;;;29.10;99.90;;;;;;5028130;28;20480;-78
2022/08/04 09:31:24;;;;;;;3.73;2.40;;;29.30;99.90;;;;;;5027890;28;20480;-78
2022/08/04 09:34:13;;;;;;;7.00;2.13;;;29.40;99.90;;;;;;5028185;28;20457;-78
2022/08/04 09:36:47;;;;;;;3.50;1.73;;;29.60;99.90;;;;;;5028011;28;20446;-78
2022/08/04 09:39:24;;;;;;;2.90;2.13;;;29.80;99.90;;;;;;5028396;28;20462;-78
2022/08/04 09:42:00;;;;;;;3.80;2.07;;;29.80;99.90;;;;;;5027749;28;20984;-78
2022/08/04 09:44:40;;;;;;;3.30;1.90;;;29.80;99.90;;;;;;5027302;28;20461;-78
2022/08/04 09:47:17;;;;;;;3.07;2.00;;;29.90;99.90;;;;;;5026906;28;20831;-75
2022/08/04 09:49:52;;;;;;;2.93;1.63;;;30.10;99.90;;;;;;5025874;28;20449;-75
2022/08/04 09:52:28;;;;;;;3.00;1.90;;;30.30;99.90;;;;;;5026106;28;20491;-75
2022/08/04 09:55:04;;;;;;;2.27;2.07;;;30.40;99.90;;;;;;5025877;28;20446;-74
2022/08/04 09:57:44;;;;;;;3.77;2.17;;;30.50;99.90;;;;;;5025897;28;20456;-75
2022/08/04 10:00:15;;;;;;;4.40;2.13;;;30.70;99.90;;;;;;5025596;28;20504;-77
2022/08/04 10:02:46;;;;;;;2.80;2.27;;;30.80;99.90;;;;;;5025545;28;20489;-75
2022/08/04 10:05:16;;;;;;;13.83;2.80;;;30.90;99.90;;;;;;5024708;28;20458;-75
2022/08/04 10:08:04;;;;;;;6.80;1.83;;;30.90;99.90;;;;;;5025404;28;20938;-75
2022/08/04 10:10:36;;;;;;;2.77;2.00;;;31.00;99.90;;;;;;5025254;28;20460;-75
2022/08/04 10:13:17;;;;;;;1.80;1.60;;;31.10;99.90;;;;;;5025545;28;20452;-75
2022/08/04 10:15:52;;;;;;;5.50;1.90;;;31.20;99.90;;;;;;5025065;28;21436;-75
2022/08/04 10:18:39;;;;;;;4.30;2.33;;;31.30;99.90;;;;;;5025300;28;20556;-76
2022/08/04 10:21:18;;;;;;;6.27;2.00;;;31.40;99.90;;;;;;5024758;28;20512;-75
2022/08/04 10:24:15;;;;;;;3.50;1.87;;;31.40;99.90;;;;;;5024499;28;20874;-76
2022/08/04 10:26:46;;;;;;;4.57;1.97;;;31.60;99.90;;;;;;5024375;28;20570;-75
2022/08/04 10:29:18;;;;;;;2.23;2.03;;;31.80;99.90;;;;;;5022814;28;20497;-76
2022/08/04 10:31:50;;;;;;;2.53;1.70;;;31.80;99.90;;;;;;5024086;28;20488;-76
2022/08/04 10:34:21;;;;;;;2.97;2.10;;;31.90;99.90;;;;;;5022618;28;20468;-75
2022/08/04 10:37:04;;;;;;;3.13;2.47;;;32.10;99.90;;;;;;5023318;28;20464;-75
2022/08/04 10:39:40;;;;;;;2.00;1.80;;;32.10;99.90;;;;;;5025251;28;20457;-76
2022/08/04 10:42:20;;;;;;;2.97;2.20;;;32.20;99.90;;;;;;5024513;28;20497;-77
2022/08/04 10:44:58;;;;;;;2.10;1.87;;;32.30;99.90;;;;;;5024469;28;20442;-76
2022/08/04 10:47:33;;;;;;;2.97;2.40;;;32.40;98.90;;;;;;5024150;28;20926;-76
2022/08/04 10:50:03;;;;;;;4.67;2.27;;;32.50;99.40;;;;;;5025666;28;20469;-77
2022/08/04 10:52:35;;;;;;;4.60;1.80;;;32.60;98.80;;;;;;5025643;28;20478;-76
2022/08/04 10:55:08;;;;;;;4.60;2.57;;;32.60;97.90;;;;;;5025939;28;20458;-76
2022/08/04 10:57:39;;;;;;;4.67;1.90;;;32.70;96.10;;;;;;5028200;28;20466;-74
2022/08/04 11:00:10;;;;;;;2.73;2.20;;;32.70;96.30;;;;;;5028721;28;20462;-74
2022/08/04 11:02:43;;;;;;;5.47;2.20;;;32.90;96.10;;;;;;5028539;28;20498;-76
2022/08/04 11:05:20;;;;;;;2.87;2.10;;;33.00;95.60;;;;;;5027315;28;20553;-75
2022/08/04 11:07:52;;;;;;;2.63;2.07;;;33.10;97.10;;;;;;5028320;28;20952;-74
2022/08/04 11:10:22;;;;;;;2.47;2.07;;;33.10;95.50;;;;;;5028395;28;20464;-75
2022/08/04 11:12:56;;;;;;;2.53;1.90;;;33.20;96.40;;;;;;5028188;28;20461;-75
2022/08/04 11:15:28;;;;;;;3.00;2.10;;;33.30;96.50;;;;;;5027396;28;20453;-75
2022/08/04 11:17:58;;;;;;;3.00;1.80;;;33.30;95.50;;;;;;5028451;28;20442;-74
2022/08/04 11:20:30;;;;;;;2.77;1.93;;;33.40;94.40;;;;;;5027634;28;21127;-75
2022/08/04 11:23:05;;;;;;;2.27;1.80;;;33.50;93.60;;;;;;5028257;28;20454;-75
2022/08/04 11:25:39;;;;;;;1.90;1.57;;;33.50;92.70;;;;;;5026532;28;20434;-74
2022/08/04 11:28:13;;;;;;;2.03;1.50;;;33.50;91.90;;;;;;5026806;28;20469;-75
2022/08/04 11:30:47;;;;;;;2.67;2.10;;;33.60;92.80;;;;;;5027100;28;20573;-75
2022/08/04 11:33:27;;;;;;;3.40;1.77;;;33.70;93.90;;;;;;5026172;28;20926;-75
2022/08/04 11:36:01;;;;;;;2.37;1.60;;;33.70;94.50;;;;;;5025897;28;20468;-75
2022/08/04 11:38:37;;;;;;;2.37;2.13;;;33.80;94.20;;;;;;5026493;28;21047;-75
2022/08/04 11:41:09;;;;;;;3.20;2.20;;;33.90;93.20;;;;;;5026058;28;20870;-75
2022/08/04 11:43:42;;;;;;;3.03;2.00;;;33.90;94.00;;;;;;5027286;28;20461;-75
2022/08/04 11:46:15;;;;;;;2.47;1.70;;;34.00;92.00;;;;;;5025794;28;20474;-75
2022/08/04 11:48:49;;;;;;;1.73;1.57;;;34.00;92.90;;;;;;5026461;28;20474;-75
2022/08/04 11:51:19;;;;;;;3.10;2.07;;;34.10;92.90;;;;;;5019276;28;20895;-75
2022/08/04 11:53:51;;;;;;;3.33;2.03;;;34.30;91.70;;;;;;5017283;28;20466;-75
2022/08/04 11:56:18;;;;;;;2.40;2.17;;;34.30;91.90;;;;;;5020322;28;20965;-75
2022/08/04 11:58:45;;;;;;;2.73;1.80;;;34.30;91.20;;;;;;5026299;28;20500;-75
2022/08/04 12:01:32;;;;;;;3.30;2.10;;;34.40;90.70;;;;;;5025899;28;20498;-75
2022/08/04 12:04:08;;;;;;;2.27;2.07;;;34.50;90.70;;;;;;5026007;28;20462;-75
2022/08/04 12:06:45;;;;;;;4.83;1.87;;;34.50;90.80;;;;;;5025898;28;20489;-75
2022/08/04 12:09:22;;;;;;;2.90;2.13;;;34.50;90.90;;;;;;5025944;28;20457;-74
2022/08/04 12:11:56;;;;;;;4.50;1.80;;;34.60;89.20;;;;;;5030387;28;20481;-77
2022/08/04 12:14:30;;;;;;;4.80;2.90;;;34.60;89.70;;;;;;5028375;28;20462;-65
2022/08/04 12:17:00;;;;;;;5.80;3.40;;;34.60;90.60;;;;;;5036619;28;20463;-77
2022/08/04 12:19:32;;;;;;;5.37;1.87;;;34.70;91.90;;;;;;5048050;28;21151;-77
2022/08/04 12:22:04;;;;;;;4.80;1.83;;;34.80;91.30;;;;;;5047996;28;20923;-77
2022/08/04 12:24:38;;;;;;;3.43;1.90;;;34.90;92.30;;;;;;5047710;28;20563;-77
2022/08/04 12:27:13;;;;;;;2.10;1.80;;;34.90;91.40;;;;;;5049592;28;20456;-78
2022/08/04 12:29:42;;;;;;;4.70;2.40;;;35.00;91.90;;;;;;5047445;28;20451;-77
2022/08/04 12:32:20;;;;;;;3.07;1.97;;;35.00;90.80;;;;;;5046728;28;20482;-77
2022/08/04 12:34:54;;;;;;;2.63;1.97;;;35.10;88.80;;;;;;5045734;28;20457;-76
2022/08/04 12:37:31;;;;;;;2.00;1.80;;;35.10;86.10;;;;;;5046740;28;20468;-76
2022/08/04 12:40:03;;;;;;;4.37;2.00;;;35.20;90.00;;;;;;5046871;28;20493;-76
2022/08/04 12:42:41;;;;;;;3.53;2.00;;;35.20;86.00;;;;;;5046705;28;20507;-76
2022/08/04 12:45:10;;;;;;;2.20;1.67;;;35.30;87.80;;;;;;5046241;28;20449;-76
2022/08/04 12:47:37;;;;;;;2.10;1.53;;;35.40;86.40;;;;;;5046377;28;20464;-76
2022/08/04 12:50:07;;;;;;;2.10;1.90;;;35.40;85.30;;;;;;5046441;28;20449;-76
2022/08/04 12:52:42;;;;;;;2.23;2.03;;;35.40;87.40;;;;;;5046270;28;20469;-76
2022/08/04 12:55:11;;;;;;;2.37;1.80;;;35.50;86.00;;;;;;5045948;28;20972;-76
2022/08/04 12:57:40;;;;;;;3.20;2.40;;;35.50;84.70;;;;;;5046741;28;20583;-76
2022/08/04 13:00:09;;;;;;;4.80;1.90;;;35.60;86.20;;;;;;5046170;28;20453;-76
2022/08/04 13:02:42;;;;;;;3.40;1.83;;;35.60;87.50;;;;;;5046425;28;20505;-76
2022/08/04 13:05:13;;;;;;;6.23;4.13;;;35.70;85.90;;;;;;5046678;28;20488;-76
2022/08/04 13:07:47;;;;;;;7.20;2.60;;;35.80;88.90;;;;;;5047333;28;20834;-76
2022/08/04 13:10:17;;;;;;;2.00;1.80;;;35.90;84.30;;;;;;5047586;28;20545;-76
2022/08/04 13:12:52;;;;;;;3.50;2.30;;;35.90;84.40;;;;;;5046638;28;20545;-76
2022/08/04 13:15:23;;;;;;;2.63;2.03;;;36.00;82.40;;;;;;5046243;28;20451;-76
2022/08/04 13:17:53;;;;;;;2.63;2.10;;;36.00;83.40;;;;;;5047284;28;20523;-77
2022/08/04 13:20:25;;;;;;;2.10;1.90;;;36.00;81.40;;;;;;5045058;28;20913;-77
2022/08/04 13:22:58;;;;;;;2.00;1.83;;;36.00;84.20;;;;;;5045755;28;20842;-76
2022/08/04 13:25:29;;;;;;;5.60;3.00;;;36.00;81.30;;;;;;5045247;28;20461;-65
2022/08/04 13:27:57;;;;;;;2.60;2.07;;;36.10;82.50;;;;;;5047436;28;20453;-77
2022/08/04 13:30:25;;;;;;;2.17;1.90;;;36.10;81.90;;;;;;5046563;28;20896;-68
2022/08/04 13:32:56;;;;;;;3.40;2.40;;;36.10;83.10;;;;;;5046009;28;21312;-77
2022/08/04 13:35:26;;;;;;;2.60;2.03;;;36.10;81.50;;;;;;5046439;28;20441;-77
2022/08/04 13:37:54;;;;;;;2.70;1.87;;;36.20;81.70;;;;;;5046644;28;20468;-76
2022/08/04 13:40:23;;;;;;;2.63;2.10;;;36.20;81.00;;;;;;5046344;28;20451;-76
2022/08/04 13:42:53;;;;;;;6.93;1.93;;;36.20;80.70;;;;;;5047579;28;20238;-76
2022/08/04 13:45:22;;;;;;;2.60;2.40;;;36.20;81.80;;;;;;5045476;28;20455;-76
2022/08/04 13:47:51;;;;;;;5.47;1.97;;;36.20;82.50;;;;;;5045958;28;20453;-77
2022/08/04 13:50:22;;;;;;;2.70;1.93;;;36.20;80.20;;;;;;5046489;28;20500;-77
2022/08/04 13:52:52;;;;;;;3.67;1.90;;;36.20;79.00;;;;;;5045106;28;20504;-77
2022/08/04 13:55:26;;;;;;;2.50;2.20;;;36.20;81.40;;;;;;5045294;28;20460;-77
2022/08/04 13:57:58;;;;;;;5.33;2.17;;;36.20;84.30;;;;;;5046752;28;20467;-78
2022/08/04 14:00:36;;;;;;;2.33;1.90;;;36.30;86.30;;;;;;5048985;28;20449;-67
2022/08/04 14:03:07;;;;;;;6.23;3.33;;;36.30;84.20;;;;;;5045798;28;20485;-69
2022/08/04 14:05:33;;;;;;;4.63;2.00;;;36.40;86.90;;;;;;5045696;28;20441;-77
2022/08/04 14:08:07;;;;;;;4.33;2.17;;;36.40;85.70;;;;;;5045911;28;20460;-76
2022/08/04 14:10:35;;;;;;;2.80;1.90;;;36.50;83.60;;;;;;5044090;28;21000;-77
2022/08/04 14:13:05;;;;;;;4.70;1.87;;;36.50;82.60;;;;;;5045579;28;20453;-77
2022/08/04 14:15:36;;;;;;;4.17;2.10;;;36.60;83.50;;;;;;5045787;28;20441;-77
2022/08/04 14:18:21;;;;;;;3.53;1.83;;;36.60;80.80;;;;;;5046769;28;20469;-76
2022/08/04 14:21:06;;;;;;;2.03;1.83;;;36.60;80.60;;;;;;5046640;28;20843;-76
2022/08/04 14:23:49;;;;;;;2.80;2.10;;;36.60;82.20;;;;;;5045548;28;20496;-77
2022/08/04 14:26:18;;;;;;;2.40;1.83;;;36.70;81.30;;;;;;5046870;28;21048;-77
2022/08/04 14:28:47;;;;;;;2.90;2.00;;;36.70;83.30;;;;;;5047136;28;20579;-77
2022/08/04 14:31:15;;;;;;;3.07;2.07;;;36.80;81.90;;;;;;5049779;28;20503;-77
2022/08/04 14:33:44;;;;;;;2.67;2.17;;;36.80;79.00;;;;;;5050006;28;20453;-77
2022/08/04 14:36:12;;;;;;;2.60;1.90;;;36.80;81.70;;;;;;5049182;28;20453;-79
2022/08/04 14:38:45;;;;;;;5.87;1.97;;;36.90;81.70;;;;;;5050093;28;20540;-77
2022/08/04 14:41:13;;;;;;;5.70;2.10;;;36.90;82.70;;;;;;5049598;28;20476;-77
2022/08/04 14:43:44;;;;;;;7.00;2.43;;;37.00;81.20;;;;;;5049586;28;20488;-77
2022/08/04 14:46:13;;;;;;;6.83;2.20;;;37.00;80.80;;;;;;5048286;28;20463;-77
2022/08/04 14:48:59;;;;;;;2.67;2.00;;;37.00;76.80;;;;;;5049080;28;20486;-76
2022/08/04 14:51:26;;;;;;;3.60;1.80;;;37.00;77.50;;;;;;5049036;28;20481;-77
2022/08/04 14:53:53;;;;;;;3.20;2.40;;;37.00;76.80;;;;;;5049341;28;20552;-77
2022/08/04 14:56:20;;;;;;;2.17;1.97;;;36.90;77.30;;;;;;5047961;28;20824;-77
2022/08/04 14:58:59;;;;;;;3.03;2.00;;;36.90;77.70;;;;;;5048841;28;20459;-77
2022/08/04 15:01:28;;;;;;;2.70;1.80;;;37.00;76.20;;;;;;5049060;28;20490;-77
2022/08/04 15:03:55;;;;;;;6.30;2.03;;;37.00;77.80;;;;;;5050023;28;20492;-76
2022/08/04 15:06:24;;;;;;;3.07;2.00;;;37.10;78.20;;;;;;5053174;28;20457;-77
2022/08/04 15:08:53;;;;;;;10.53;2.17;;;37.00;77.20;;;;;;5054147;28;20486;-75
2022/08/04 15:11:20;;;;;;;13.10;2.70;;;37.10;76.60;;;;;;5051441;28;20481;-76
2022/08/04 15:13:47;;;;;;;4.17;2.30;;;37.00;78.20;;;;;;5051112;28;20461;-77
2022/08/04 15:16:15;;;;;;;8.20;2.20;;;37.00;76.20;;;;;;5049518;28;20464;-77
2022/08/04 15:18:43;;;;;;;2.57;2.13;;;37.10;77.80;;;;;;5050120;28;20468;-75
2022/08/04 15:21:12;;;;;;;2.60;2.20;;;37.20;74.60;;;;;;5050323;28;20485;-75
2022/08/04 15:23:39;;;;;;;3.63;2.30;;;37.10;75.40;;;;;;5051565;28;21039;-76
2022/08/04 15:26:09;;;;;;;3.13;2.10;;;37.10;76.60;;;;;;5052166;28;20459;-78
2022/08/04 15:28:38;;;;;;;4.50;1.80;;;37.10;75.70;;;;;;5051966;28;20465;-77
2022/08/04 15:31:06;;;;;;;2.20;2.00;;;37.10;76.50;;;;;;5052896;28;20487;-78
2022/08/04 15:33:34;;;;;;;3.00;2.47;;;37.10;76.10;;;;;;5052554;28;20460;-76
2022/08/04 15:36:15;;;;;;;2.30;1.87;;;37.20;76.80;;;;;;5053282;28;20461;-78
2022/08/04 15:38:52;;;;;;;3.45;2.13;;;37.20;76.10;;;;;;5053052;28;20531;-77
2022/08/04 15:41:26;;;;;;;2.70;2.50;;;37.60;74.90;;;;;;5052036;28;20608;-76
2022/08/04 15:44:17;;;;;;;3.60;2.47;;;37.50;73.30;;;;;;5052685;28;20968;-77
2022/08/04 15:47:10;;;;;;;6.50;2.27;;;37.40;74.20;;;;;;5053053;28;20456;-77
2022/08/04 15:49:39;;;;;;;2.30;2.10;;;37.30;73.80;;;;;;5050787;28;20461;-74
2022/08/04 15:52:10;;;;;;;3.67;2.50;;;37.40;73.00;;;;;;5049624;28;20488;-69
2022/08/04 15:54:37;;;;;;;3.60;2.27;;;37.30;75.10;;;;;;5052165;28;20465;-77
2022/08/04 15:57:05;;;;;;;2.17;1.83;;;37.30;74.40;;;;;;5052965;28;20463;-77
2022/08/04 16:00:12;;;;;;;3.60;2.43;;;37.40;74.50;;;;;;5052776;28;20457;-77
2022/08/04 16:02:42;;;;;;;3.80;2.23;;;37.40;73.80;;;;;;5052907;28;20496;-77
2022/08/04 16:05:38;;;;;;;3.90;2.70;;;37.30;73.30;;;;;;5050097;28;20461;-77
2022/08/04 16:08:16;;;;;;;6.17;2.43;;;37.40;76.50;;;;;;5049525;28;20973;-77
2022/08/04 16:10:48;;;;;;;5.27;2.30;;;37.40;74.80;;;;;;5049623;28;20476;-76
2022/08/04 16:13:17;;;;;;;3.07;2.03;;;37.40;73.90;;;;;;5049704;28;20453;-77
2022/08/04 16:15:47;;;;;;;4.35;2.30;;;37.40;73.00;;;;;;5049022;28;20466;-79
2022/08/04 16:18:37;;;;;;;9.10;6.57;;;37.80;72.50;;;;;;5049054;28;20211;-78
2022/08/04 16:21:06;;;;;;;3.27;2.13;;;37.80;75.40;;;;;;5050703;28;20468;-64
2022/08/04 16:23:55;;;;;;;2.73;2.13;;;37.70;72.00;;;;;;5047946;28;20504;-78
2022/08/04 16:26:55;;;;;;;2.77;2.43;;;37.60;72.00;;;;;;5045561;28;20487;-76
2022/08/04 16:29:36;;;;;;;6.90;2.00;;;37.60;73.90;;;;;;5049204;28;20464;-77
2022/08/04 16:32:17;;;;;;;3.13;2.27;;;37.50;72.80;;;;;;5048667;28;21060;-76
2022/08/04 16:34:48;;;;;;;4.93;2.30;;;37.50;73.30;;;;;;5046472;28;20458;-74
2022/08/04 16:37:16;;;;;;;6.63;2.37;;;37.60;74.10;;;;;;5046897;28;20457;-76
2022/08/04 16:39:46;;;;;;;2.97;2.37;;;37.60;72.60;;;;;;5047326;28;20519;-76
2022/08/04 16:42:33;;;;;;;2.50;2.30;;;37.50;72.00;;;;;;5048114;28;20572;-76
2022/08/04 16:45:10;;;;;;;2.60;2.40;;;37.50;73.60;;;;;;5046604;28;20460;-73
2022/08/04 16:48:02;;;;;;;4.73;3.80;;;37.50;72.50;;;;;;5051958;28;20444;-76
2022/08/04 16:50:30;;;;;;;4.33;2.80;;;37.50;73.10;;;;;;5050280;28;20446;-76
2022/08/04 16:52:57;;;;;;;4.00;2.40;;;37.40;73.50;;;;;;5047525;28;20449;-74
2022/08/04 16:55:27;;;;;;;3.37;2.27;;;37.40;71.80;;;;;;5050773;28;20460;-79
2022/08/04 16:57:55;;;;;;;3.90;2.60;;;37.30;75.60;;;;;;5051444;28;20948;-79
2022/08/04 17:00:33;;;;;;;5.90;2.40;;;37.30;73.10;;;;;;5049628;28;20453;-78
2022/08/04 17:03:02;;;;;;;5.27;2.33;;;37.30;76.90;;;;;;5050771;28;20488;-78
2022/08/04 17:05:29;;;;;;;4.17;2.47;;;37.20;73.70;;;;;;5049625;28;20848;-76
2022/08/04 17:07:57;;;;;;;3.70;2.40;;;37.20;76.00;;;;;;5049781;28;20963;-77
2022/08/04 17:10:37;;;;;;;4.27;2.70;;;37.10;74.10;;;;;;5048963;28;20499;-77
2022/08/04 17:13:25;;;;;;;5.30;2.67;;;37.10;75.10;;;;;;5048691;28;20438;-75
2022/08/04 17:15:54;;;;;;;3.27;2.33;;;37.00;77.50;;;;;;5048054;28;20861;-75
2022/08/04 17:18:23;;;;;;;3.93;2.40;;;37.00;74.80;;;;;;5048726;28;20548;-76
2022/08/04 17:20:50;;;;;;;2.80;2.33;;;36.90;73.10;;;;;;5048561;28;20571;-75